Latest Weather Observations for Curtin

IDW60801

Issued at 5:35 am WST Friday 19 September 2014 (issued every 30 minutes, with the page automatically refreshed every 10 minutes)

About weather observations | Map of weather stations | Latest weather observations for WA | Other Formats
Station Details ID: 003080 Name: CURTIN AERO Lat: -17.58 Lon: 123.83 Height: 77.5 m
Data from the previous 72 hours. | See also: Recent months at Curtin
Date/Time
WST
Temp
°C
App
Temp
°C
Dew
Point
Rel
Hum
%
Delta-T
°C
Wind Press
QNH
hPa
Press
MSL
hPa
Rain
since 9 am
mm
Dir
 
Spd
km/h
Gust
km/h
Spd
kts
Gust
kts
19/05:30am 17.6 18.3 16.1 91 0.9 ENE 7 9 4 5 1013.5 1013.1 0.0
19/05:00am 17.1 18.0 15.1 88 1.2 NNE 4 9 2 5 1013.1 1012.7 0.0
19/04:30am 18.5 19.1 16.7 89 1.1 NNE 9 11 5 6 1012.7 1012.3 0.0
19/04:00am 19.1 19.7 15.4 79 2.2 W 6 7 3 4 1012.3 1011.9 0.0
19/03:30am 21.0 21.7 17.0 78 2.4 SSW 9 11 5 6 1012.0 1011.6 0.0
19/03:00am 22.1 22.1 17.2 74 3.0 SW 13 17 7 9 1011.8 1011.4 0.0
19/02:30am 22.3 21.6 17.4 74 3.0 SW 17 20 9 11 1011.8 1011.4 0.0
19/02:00am 22.2 21.8 17.1 73 3.1 SSW 15 19 8 10 1012.0 1011.6 0.0
19/01:30am 22.1 21.3 17.0 73 3.1 SW 17 19 9 10 1012.3 1011.9 0.0
19/01:00am 22.1 20.9 15.0 64 4.2 SW 15 19 8 10 1012.5 1012.1 0.0
19/12:30am 22.3 20.3 12.8 55 5.4 SW 15 17 8 9 1012.8 1012.4 0.0
19/12:00am 22.9 20.3 11.9 50 6.2 SW 17 20 9 11 1013.4 1013.0 0.0
 
Date/Time
WST
Temp
°C
App
Temp
°C
Dew
Point
Rel
Hum
%
Delta-T
°C
Wind Press
QNH
hPa
Press
MSL
hPa
Rain
since 9 am
mm
Dir
 
Spd
km/h
Gust
km/h
Spd
kts
Gust
kts
18/11:30pm 22.6 19.8 10.1 45 6.8 WSW 15 15 8 8 1013.7 1013.3 0.0
18/11:00pm 23.2 21.8 10.9 46 6.8 SW 9 11 5 6 1014.1 1013.7 0.0
18/10:30pm 23.7 23.8 15.5 60 4.9 WSW 9 11 5 6 1014.3 1013.9 0.0
18/10:00pm 24.3 25.7 18.7 71 3.6 W 9 13 5 7 1014.5 1014.1 0.0
18/09:30pm 24.6 26.4 18.8 70 3.7 WNW 7 9 4 5 1014.7 1014.2 0.0
18/09:00pm 24.4 25.8 18.6 70 3.7 WNW 9 11 5 6 1014.8 1014.3 0.0
18/08:30pm 23.7 24.4 16.0 62 4.7 NW 7 11 4 6 1014.5 1014.1 0.0
18/08:00pm 24.7 25.4 15.6 57 5.5 WNW 6 6 3 3 1014.2 1013.8 0.0
18/07:30pm 26.8 28.8 17.0 55 6.1 N 2 6 1 3 1014.1 1013.7 0.0
18/07:00pm 27.6 27.9 15.9 49 7.2 NNW 9 13 5 7 1013.2 1012.8 0.0
18/06:30pm 28.8 27.8 14.6 42 8.6 NW 13 17 7 9 1012.7 1012.3 0.0
18/06:00pm 30.2 29.0 13.9 37 9.8 NW 13 19 7 10 1012.0 1011.6 0.0
18/05:30pm 32.8 31.3 11.9 28 12.4 NW 11 17 6 9 1011.5 1011.1 0.0
18/05:00pm 35.6 34.3 5.9 16 16.2 W 2 6 1 3 1010.9 1010.5 0.0
18/04:30pm 35.7 33.6 6.0 16 16.2 W 6 9 3 5 1010.7 1010.3 0.0
18/04:00pm 36.5 33.1 5.7 15 16.9 SW 13 17 7 9 1010.7 1010.3 0.0
18/03:30pm 36.1 33.4 5.4 15 16.7 SW 9 17 5 9 1010.7 1010.3 0.0
18/03:00pm 36.9 34.7 6.0 15 17.0 NNW 7 15 4 8 1010.7 1010.3 0.0
18/02:30pm 36.2 32.7 5.5 15 16.7 SSW 13 20 7 11 1011.0 1010.6 0.0
18/02:00pm 36.7 33.3 5.9 15 16.9 S 13 20 7 11 1011.3 1010.9 0.0
18/01:30pm 35.9 32.3 5.2 15 16.6 SW 13 20 7 11 1011.8 1011.4 0.0
18/01:00pm 36.1 32.8 4.4 14 17.0 W 11 20 6 11 1012.3 1011.9 0.0
18/12:30pm 34.9 32.1 7.1 18 15.4 S 11 22 6 12 1012.8 1012.4 0.0
18/12:00pm 34.2 31.9 7.3 19 14.9 WNW 9 15 5 8 1013.2 1012.8 0.0
18/11:30am 33.5 32.1 10.8 25 13.2 W 9 19 5 10 1014.0 1013.6 0.0
18/11:00am 32.7 31.4 11.3 27 12.5 W 9 13 5 7 1014.9 1014.4 0.0
18/10:30am 32.4 32.4 14.1 33 11.2 WSW 7 20 4 11 1015.3 1014.8 0.0
18/10:00am 30.6 29.9 14.2 36 10.0 W 11 17 6 9 1015.7 1015.2 0.0
18/09:30am 29.6 30.2 16.8 46 8.1 WNW 9 17 5 9 1016.2 1015.7 0.0
18/09:00am 28.2 28.3 16.5 49 7.3 WNW 11 17 6 9 1016.5 1016.0 0.0
18/08:30am 26.9 28.1 19.0 62 5.1 NNW 11 15 6 8 1016.7 1016.2 0.0
18/08:00am 25.2 27.1 20.5 75 3.1 NNW 11 15 6 8 1016.6 1016.1 0.0
18/07:30am 24.1 27.1 22.7 92 0.9 NNW 11 15 6 8 1016.2 1015.7 0.0
18/07:10am 22.4 25.3 22.4 100 0.0 NNW 11 17 6 9 1016.0 1015.5 0.0
18/07:00am 21.9 24.9 21.9 100 0.0 NNW 9 15 5 8 1015.8 1015.3 0.0
18/06:30am 20.6 22.9 20.6 100 0.0 N 9 13 5 7 1015.6 1015.1 0.0
18/06:00am 19.6 21.3 19.4 99 0.1 N 9 11 5 6 1015.1 1014.6 0.0
18/05:37am 19.0 20.5 18.8 99 0.1 N 9 11 5 6 1014.9 1014.4 0.0
18/05:30am 18.3 19.4 18.1 99 0.1 N 9 11 5 6 1014.8 1014.3 0.0
18/05:00am 18.8 20.2 18.6 99 0.1 N 9 15 5 8 1014.5 1014.1 0.0
18/04:30am 18.8 19.8 18.6 99 0.1 N 11 13 6 7 1014.0 1013.6 0.0
18/04:00am 18.5 20.0 18.0 97 0.3 NNW 7 11 4 6 1013.8 1013.4 0.0
18/03:30am 18.7 20.1 17.7 94 0.6 NNE 7 9 4 5 1013.5 1013.1 0.0
18/03:00am 20.1 22.9 18.9 93 0.8 NW 2 9 1 5 1013.2 1012.8 0.0
18/02:30am 20.4 22.3 18.9 91 0.9 N 7 11 4 6 1013.3 1012.9 0.0
18/02:00am 21.6 23.3 20.1 91 1.0 N 11 17 6 9 1013.2 1012.8 0.0
18/01:30am 22.2 23.5 20.1 88 1.4 SSW 13 20 7 11 1012.7 1012.3 0.0
18/01:00am 22.4 22.3 19.9 86 1.6 SW 20 26 11 14 1012.4 1012.0 0.0
18/12:30am 21.9 22.7 19.1 84 1.8 SW 13 15 7 8 1013.1 1012.7 0.0
18/12:00am 22.8 23.5 19.6 82 2.1 SW 15 17 8 9 1013.4 1013.0 0.0
 
Date/Time
WST
Temp
°C
App
Temp
°C
Dew
Point
Rel
Hum
%
Delta-T
°C
Wind Press
QNH
hPa
Press
MSL
hPa
Rain
since 9 am
mm
Dir
 
Spd
km/h
Gust
km/h
Spd
kts
Gust
kts
17/11:30pm 22.5 23.5 19.5 83 1.9 SW 13 15 7 8 1013.5 1013.1 0.0
17/11:00pm 22.8 24.4 20.0 84 1.8 SW 11 13 6 7 1013.7 1013.3 0.0
17/10:30pm 23.2 25.4 20.5 85 1.8 W 9 11 5 6 1013.9 1013.5 0.0
17/10:00pm 23.4 25.8 20.9 86 1.6 WNW 9 11 5 6 1013.9 1013.5 0.0
17/09:30pm 23.1 25.7 20.4 85 1.8 NW 7 11 4 6 1013.8 1013.4 0.0
17/09:00pm 23.7 26.3 20.4 82 2.1 NW 7 9 4 5 1013.8 1013.4 0.0
17/08:30pm 24.2 26.3 20.1 78 2.7 NNW 9 11 5 6 1013.5 1013.1 0.0
17/08:00pm 24.6 26.5 19.7 74 3.2 NNW 9 13 5 7 1013.4 1013.0 0.0
17/07:30pm 25.0 26.0 18.7 68 4.0 NNW 11 13 6 7 1013.1 1012.7 0.0
17/07:00pm 25.3 26.4 17.0 60 5.2 N 7 9 4 5 1012.7 1012.3 0.0
17/06:30pm 26.7 26.7 17.2 56 6.0 NW 13 19 7 10 1012.2 1011.8 0.0
17/06:00pm 28.4 27.7 16.3 47 7.5 NW 15 22 8 12 1011.8 1011.4 0.0
17/05:30pm 31.0 29.4 12.8 32 10.8 NW 13 17 7 9 1011.2 1010.8 0.0
17/05:00pm 33.8 30.5 4.5 16 15.5 NNW 11 15 6 8 1010.9 1010.5 0.0
17/04:30pm 34.5 31.1 4.1 15 16.0 N 11 15 6 8 1010.7 1010.3 0.0
17/04:00pm 35.1 31.8 4.6 15 16.3 NW 11 19 6 10 1010.6 1010.2 0.0
17/03:30pm 35.8 32.4 6.1 16 16.3 NW 13 19 7 10 1010.5 1010.1 0.0
17/03:00pm 35.5 32.5 7.5 18 15.7 WNW 13 19 7 10 1010.5 1010.1 0.0
17/02:30pm 35.1 33.1 10.2 22 14.5 W 11 19 6 10 1010.7 1010.3 0.0
17/02:00pm 34.8 33.0 9.3 21 14.6 N 9 20 5 11 1011.0 1010.6 0.0
17/01:30pm 35.3 31.8 7.4 18 15.6 W 15 20 8 11 1011.4 1011.0 0.0
17/01:00pm 34.5 31.8 10.4 23 14.0 WNW 15 22 8 12 1011.7 1011.3 0.0
17/12:30pm 33.7 32.2 13.2 29 12.4 WNW 13 24 7 13 1012.2 1011.8 0.0
17/12:00pm 33.1 32.1 15.6 35 11.0 NW 15 24 8 13 1012.6 1012.2 0.0
17/11:30am 32.6 32.2 17.2 39 9.8 WNW 15 20 8 11 1013.0 1012.6 0.0
17/11:00am 32.3 32.8 17.4 41 9.5 NW 11 20 6 11 1013.4 1013.0 0.0
17/10:30am 31.3 31.1 15.7 39 9.7 WNW 11 17 6 9 1013.8 1013.4 0.0
17/10:00am 30.4 31.0 17.8 46 8.1 WNW 11 17 6 9 1014.2 1013.8 0.0
17/09:30am 29.5 30.2 18.0 50 7.4 WNW 11 17 6 9 1014.5 1014.1 0.0
17/09:00am 28.5 30.5 20.0 60 5.6 NNW 9 15 5 8 1014.5 1014.1 0.0
17/08:30am 27.0 28.6 19.9 65 4.6 NNW 11 17 6 9 1014.8 1014.3 0.0
17/08:00am 25.7 27.9 21.8 79 2.6 NNW 13 19 7 10 1014.5 1014.1 0.0
17/07:41am 24.6 26.4 21.9 85 1.8 N 15 20 8 11 1014.3 1013.9 0.0
17/07:30am 24.2 26.8 21.9 87 1.5 N 11 17 6 9 1014.1 1013.7 0.0
17/07:02am 22.6 25.5 21.1 91 1.0 N 7 11 4 6 1014.0 1013.6 0.0
17/07:00am 22.4 25.2 20.9 91 1.0 NNE 7 11 4 6 1013.9 1013.5 0.0
17/06:30am 20.1 22.1 19.9 99 0.1 NE 9 11 5 6 1013.5 1013.1 0.0
17/06:00am 17.3 18.0 17.1 99 0.1 NNE 9 11 5 6 1013.0 1012.6 0.0
17/05:30am 17.0 17.6 16.7 98 0.2 NNE 9 11 5 6 1012.6 1012.2 0.0
17/05:00am 17.8 18.5 17.0 95 0.5 NE 9 15 5 8 1012.3 1011.9 0.0
17/04:30am 17.3 17.2 16.0 92 0.8 NE 11 15 6 8 1012.0 1011.6 0.0
17/04:00am 17.0 16.9 15.0 88 1.2 N 9 13 5 7 1011.2 1010.8 0.0
17/03:30am 16.6 16.3 14.4 87 1.3 N 9 11 5 6 1010.9 1010.5 0.0
17/03:00am 18.1 18.2 15.5 85 1.5 N 9 11 5 6 1010.8 1010.4 0.0
17/02:30am 18.7 18.3 15.2 80 2.1 N 11 11 6 6 1010.6 1010.2 0.0
17/02:00am 18.5 18.0 14.8 79 2.2 N 11 15 6 8 1010.6 1010.2 0.0
17/01:30am 19.6 19.9 15.0 75 2.7 N 7 15 4 8 1010.6 1010.2 0.0
17/01:00am 19.5 19.5 14.1 71 3.1 SSW 7 7 4 4 1010.3 1009.9 0.0
17/12:30am 21.4 20.9 15.0 67 3.8 SSW 11 13 6 7 1010.4 1010.0 0.0
17/12:00am 22.3 21.3 15.6 66 4.0 SSW 15 15 8 8 1010.6 1010.2 0.0
 
Date/Time
WST
Temp
°C
App
Temp
°C
Dew
Point
Rel
Hum
%
Delta-T
°C
Wind Press
QNH
hPa
Press
MSL
hPa
Rain
since 9 am
mm
Dir
 
Spd
km/h
Gust
km/h
Spd
kts
Gust
kts
16/11:30pm 22.2 22.3 16.5 70 3.5 SSW 11 13 6 7 1010.9 1010.5 0.0
16/11:00pm 23.4 23.2 17.6 70 3.6 SSW 15 19 8 10 1010.9 1010.5 0.0
16/10:30pm 22.8 24.2 18.6 77 2.7 SSW 9 11 5 6 1011.0 1010.6 0.0
16/10:00pm 23.3 25.0 18.6 75 3.0 WNW 7 11 4 6 1011.1 1010.7 0.0
16/09:30pm 23.4 25.8 18.7 75 3.0 NNW 4 11 2 6 1011.3 1010.9 0.0
16/09:00pm 24.1 25.4 19.4 75 3.0 W 11 13 6 7 1011.2 1010.8 0.0
16/08:30pm 24.0 25.5 18.9 73 3.2 WNW 9 11 5 6 1011.2 1010.8 0.0
16/08:00pm 24.5 25.9 18.7 70 3.7 NNW 9 13 5 7 1010.9 1010.5 0.0
16/07:30pm 24.9 26.0 18.1 66 4.3 NNW 9 11 5 6 1010.5 1010.1 0.0
16/07:00pm 26.3 27.4 17.9 60 5.3 NW 9 13 5 7 1010.2 1009.8 0.0
16/06:30pm 27.3 27.4 16.6 52 6.7 NW 11 15 6 8 1009.7 1009.3 0.0
16/06:00pm 29.2 27.5 12.6 36 9.8 NW 13 19 7 10 1009.1 1008.6 0.0
16/05:30pm 31.3 29.3 10.1 27 12.1 NW 11 17 6 9 1008.8 1008.3 0.0
16/05:00pm 33.1 29.2 7.1 20 14.3 NW 17 28 9 15 1008.5 1008.0 0.0
16/04:30pm 34.6 30.1 6.0 17 15.6 NW 19 26 10 14 1008.2 1007.7 0.0
16/04:00pm 35.1 30.7 4.6 15 16.3 N 17 26 9 14 1008.1 1007.6 0.0
16/03:30pm 36.4 32.5 3.6 13 17.3 NNW 13 20 7 11 1008.0 1007.5 0.0
16/03:00pm 36.3 32.4 3.5 13 17.3 N 13 20 7 11 1008.0 1007.5 0.0
16/02:30pm 37.1 32.9 1.8 11 18.2 NW 13 22 7 12 1008.1 1007.6 0.0
16/02:00pm 35.8 32.8 4.2 14 16.8 WNW 9 15 5 8 1008.4 1007.9 0.0
16/01:30pm 36.1 32.4 4.4 14 17.0 N 13 24 7 13 1008.9 1008.4 0.0
16/01:00pm 35.6 32.4 6.8 17 16.0 N 13 20 7 11 1009.5 1009.1 0.0
16/12:30pm 35.0 33.2 9.4 21 14.7 WSW 9 15 5 8 1010.0 1009.6 0.0
16/12:00pm 34.2 33.7 12.5 27 13.0 ESE 7 11 4 6 1010.6 1010.2 0.0
16/11:30am 33.5 32.7 14.0 30 11.9 NW 11 17 6 9 1011.2 1010.8 0.0
16/11:00am 32.1 31.1 13.3 31 11.3 WNW 11 19 6 10 1011.7 1011.3 0.0
16/10:30am 31.3 30.5 14.0 35 10.5 W 11 19 6 10 1012.2 1011.8 0.0
16/10:00am 30.5 29.7 15.0 39 9.5 W 13 19 7 10 1012.7 1012.3 0.0
16/09:30am 29.5 29.4 16.0 44 8.4 WSW 11 19 6 10 1013.0 1012.6 0.0
16/09:00am 28.6 27.9 14.4 41 8.6 WNW 11 17 6 9 1013.2 1012.8 0.0
16/08:30am 27.5 26.9 14.5 45 7.8 NW 11 19 6 10 1013.1 1012.7 0.0
16/08:00am 26.1 25.6 14.9 50 6.8 NW 11 17 6 9 1013.0 1012.6 0.0
16/07:30am 24.2 24.6 16.2 61 4.9 NW 9 13 5 7 1012.9 1012.5 0.0
16/07:00am 21.7 21.8 15.5 68 3.7 NNW 9 13 5 7 1012.6 1012.2 0.0
16/06:30am 18.9 18.5 14.2 74 2.7 N 9 11 5 6 1012.4 1012.0 0.0
16/06:00am 16.2 15.2 12.2 77 2.2 NNW 9 11 5 6 1011.7 1011.3 0.0

Other Formats:

Comma delimited format used in spreadsheet applications
http://www.bom.gov.au/fwo/IDW60801/IDW60801.94204.axf

JavaScript Object Notation format (JSON) in row-major order
http://www.bom.gov.au/fwo/IDW60801/IDW60801.94204.json